createdAt,value
2019-04-03T00:00:14.723Z,9.90
2019-04-03T00:02:45.144Z,10.00
2019-04-03T00:05:15.687Z,10.00
2019-04-03T00:07:46.137Z,9.90
2019-04-03T00:10:16.486Z,9.90
2019-04-03T00:12:46.821Z,9.80
2019-04-03T00:15:17.251Z,9.80
2019-04-03T00:17:47.522Z,9.80
2019-04-03T00:20:19.155Z,9.70
2019-04-03T00:22:51.388Z,9.70
2019-04-03T00:25:22.397Z,9.70
2019-04-03T00:27:54.163Z,9.70
2019-04-03T00:30:24.430Z,9.70
2019-04-03T00:32:54.786Z,9.60
2019-04-03T00:35:25.138Z,9.60
2019-04-03T00:37:55.805Z,9.60
2019-04-03T00:40:26.357Z,9.60
2019-04-03T00:42:56.646Z,9.60
2019-04-03T00:45:27.039Z,9.50
2019-04-03T00:47:57.299Z,9.50
2019-04-03T00:50:27.603Z,9.40
2019-04-03T00:52:58.043Z,9.30
2019-04-03T00:55:28.378Z,9.30
2019-04-03T00:57:58.857Z,9.20
2019-04-03T01:00:29.446Z,9.20
2019-04-03T01:03:01.461Z,9.20
2019-04-03T01:05:31.764Z,9.20
2019-04-03T01:08:02.212Z,9.10
2019-04-03T01:10:32.546Z,9.10
2019-04-03T01:13:02.913Z,9.20
2019-04-03T01:15:33.455Z,9.20
2019-04-03T01:18:05.163Z,9.20
2019-04-03T01:20:36.290Z,9.20
2019-04-03T01:23:07.259Z,9.30
2019-04-03T01:25:39.694Z,9.30
2019-04-03T01:28:11.757Z,9.30
2019-04-03T01:30:44.114Z,9.30
2019-04-03T01:33:14.815Z,9.20
2019-04-03T01:35:47.480Z,9.20
2019-04-03T01:38:19.554Z,9.30
2019-04-03T01:40:50.963Z,9.30
2019-04-03T01:43:23.213Z,9.30
2019-04-03T01:45:56.501Z,9.20
2019-04-03T01:48:28.105Z,9.20
2019-04-03T01:50:59.482Z,9.20
2019-04-03T01:53:32.702Z,9.20
2019-04-03T01:56:05.071Z,9.20
2019-04-03T01:58:36.486Z,9.10
2019-04-03T02:01:08.049Z,9.10
2019-04-03T02:03:41.192Z,9.10
2019-04-03T02:06:13.286Z,9.10
2019-04-03T02:08:45.308Z,9.10
2019-04-03T02:11:18.085Z,9.10
2019-04-03T02:13:50.968Z,9.00
2019-04-03T02:16:38.341Z,9.00
2019-04-03T02:19:09.615Z,9.00
2019-04-03T02:21:39.914Z,9.10
2019-04-03T02:24:10.318Z,9.10
2019-04-03T02:26:40.622Z,9.20
2019-04-03T02:29:10.897Z,9.00
2019-04-03T02:31:41.142Z,9.00
2019-04-03T02:34:11.495Z,9.10
2019-04-03T02:36:44.422Z,9.00
2019-04-03T02:39:14.913Z,9.10
2019-04-03T02:41:45.564Z,9.00
2019-04-03T02:44:17.936Z,8.90
2019-04-03T02:46:48.195Z,9.00
2019-04-03T02:49:18.779Z,9.00
2019-04-03T02:51:51.875Z,9.00
2019-04-03T02:54:28.938Z,9.00
2019-04-03T02:56:59.238Z,9.10
2019-04-03T02:59:31.155Z,9.00
2019-04-03T03:02:01.417Z,9.00
2019-04-03T03:04:31.715Z,9.00
2019-04-03T03:07:04.437Z,9.00
2019-04-03T03:09:35.376Z,9.00
2019-04-03T03:12:06.055Z,9.00
2019-04-03T03:14:39.253Z,9.00
2019-04-03T03:17:10.094Z,8.90
2019-04-03T03:19:40.786Z,8.90
2019-04-03T03:22:22.911Z,8.90
2019-04-03T03:24:54.494Z,8.90
2019-04-03T03:27:25.520Z,8.90
2019-04-03T03:29:59.817Z,9.00
2019-04-03T03:32:35.438Z,9.00
2019-04-03T03:35:12.347Z,9.00
2019-04-03T03:37:36.548Z,9.00
2019-04-03T03:40:07.293Z,9.10
2019-04-03T03:42:38.134Z,9.00
2019-04-03T03:45:09.054Z,9.00
2019-04-03T03:47:39.376Z,9.10
2019-04-03T03:50:10.673Z,9.10
2019-04-03T03:52:41.804Z,9.00
2019-04-03T03:55:12.461Z,8.90
2019-04-03T03:57:43.053Z,8.90
2019-04-03T04:00:13.381Z,8.90
2019-04-03T04:02:45.074Z,8.90
2019-04-03T04:05:20.033Z,8.90
2019-04-03T04:07:47.982Z,8.80
2019-04-03T04:10:18.563Z,8.80
2019-04-03T04:12:49.239Z,8.80
2019-04-03T04:15:20.367Z,8.90
2019-04-03T04:17:51.848Z,8.80
2019-04-03T04:20:22.277Z,8.90
2019-04-03T04:22:53.184Z,8.90
2019-04-03T04:25:23.841Z,8.80
2019-04-03T04:27:54.516Z,8.80
2019-04-03T04:30:24.807Z,8.80
2019-04-03T04:32:55.540Z,8.80
2019-04-03T04:35:25.790Z,8.80
2019-04-03T04:37:56.712Z,8.80
2019-04-03T04:40:27.293Z,8.80
2019-04-03T04:42:57.941Z,8.70
2019-04-03T04:45:28.174Z,8.70
2019-04-03T04:47:58.549Z,8.70
2019-04-03T04:50:28.883Z,8.70
2019-04-03T04:52:59.455Z,8.60
2019-04-03T04:55:31.337Z,8.60
2019-04-03T04:58:04.763Z,8.50
2019-04-03T05:00:35.277Z,8.50
2019-04-03T05:03:05.619Z,8.40
2019-04-03T05:05:36.104Z,8.40
2019-04-03T05:08:06.664Z,8.40
2019-04-03T05:10:37.397Z,8.40
2019-04-03T05:13:07.889Z,8.40
2019-04-03T05:15:38.455Z,8.40
2019-04-03T05:18:08.961Z,8.40
2019-04-03T05:20:39.285Z,8.40
2019-04-03T05:23:09.641Z,8.40
2019-04-03T05:25:40.114Z,8.40
2019-04-03T05:28:10.506Z,8.40
2019-04-03T05:30:41.076Z,8.40
2019-04-03T05:33:11.869Z,8.40
2019-04-03T05:35:42.292Z,8.40
2019-04-03T05:38:12.835Z,8.40
2019-04-03T05:40:44.694Z,8.30
2019-04-03T05:43:15.067Z,8.30
2019-04-03T05:45:45.327Z,8.30
2019-04-03T05:48:17.739Z,8.30
2019-04-03T05:50:47.756Z,8.30
2019-04-03T05:53:18.014Z,8.20
2019-04-03T05:55:48.354Z,8.20
2019-04-03T05:58:22.732Z,8.20
2019-04-03T06:01:03.535Z,8.10
2019-04-03T06:03:38.160Z,8.10
2019-04-03T06:05:58.387Z,8.10
2019-04-03T06:08:28.785Z,8.10
2019-04-03T06:10:59.409Z,8.10
2019-04-03T06:13:31.524Z,8.00
2019-04-03T06:16:02.087Z,8.00
2019-04-03T06:18:32.518Z,8.10
2019-04-03T06:21:03.354Z,8.00
2019-04-03T06:23:36.696Z,7.90
2019-04-03T06:26:07.427Z,7.80
2019-04-03T06:28:37.769Z,7.80
2019-04-03T06:31:08.844Z,7.80
2019-04-03T06:33:40.089Z,7.80
2019-04-03T06:36:10.427Z,7.80
2019-04-03T06:38:40.959Z,7.70
2019-04-03T06:41:11.443Z,7.80
2019-04-03T06:44:00.862Z,7.80
2019-04-03T06:46:31.224Z,7.90
2019-04-03T06:49:02.394Z,7.90
2019-04-03T06:51:44.889Z,7.90
2019-04-03T06:54:15.257Z,7.90
2019-04-03T06:56:45.660Z,7.90
2019-04-03T06:59:16.573Z,7.80
2019-04-03T07:01:47.352Z,7.80
2019-04-03T07:04:17.797Z,7.90
2019-04-03T07:06:50.028Z,7.90
2019-04-03T07:09:23.524Z,8.00
2019-04-03T07:11:52.372Z,8.00
2019-04-03T07:14:24.125Z,8.00
2019-04-03T07:16:54.560Z,8.00
2019-04-03T07:19:25.251Z,8.10
2019-04-03T07:21:55.974Z,8.00
2019-04-03T07:24:27.513Z,8.00
2019-04-03T07:26:57.792Z,8.10
2019-04-03T07:29:28.071Z,8.10
2019-04-03T07:31:58.344Z,8.20
2019-04-03T07:34:28.738Z,8.30
2019-04-03T07:36:59.291Z,8.40
2019-04-03T07:39:29.807Z,8.40
2019-04-03T07:42:00.453Z,8.40
2019-04-03T07:44:30.782Z,8.40
2019-04-03T07:47:03.276Z,8.40
2019-04-03T07:49:33.722Z,8.40
2019-04-03T07:52:04.280Z,8.30
2019-04-03T07:54:34.774Z,8.20
2019-04-03T07:57:05.271Z,8.20
2019-04-03T07:59:35.914Z,8.20
2019-04-03T08:02:06.539Z,8.20
2019-04-03T08:04:36.975Z,8.20
2019-04-03T08:07:08.359Z,8.20
2019-04-03T08:09:38.663Z,8.30
2019-04-03T08:12:09.006Z,8.30
2019-04-03T08:14:41.130Z,8.30
2019-04-03T08:17:11.563Z,8.40
2019-04-03T08:19:44.924Z,8.50
2019-04-03T08:22:14.015Z,8.50
2019-04-03T08:24:44.336Z,8.40
2019-04-03T08:27:14.870Z,8.50
2019-04-03T08:29:45.425Z,8.50
2019-04-03T08:32:17.678Z,8.60
2019-04-03T08:34:50.407Z,8.60
2019-04-03T08:37:29.564Z,8.70
2019-04-03T08:39:57.683Z,8.70
2019-04-03T08:42:32.889Z,8.80
2019-04-03T08:45:06.149Z,8.80
2019-04-03T08:47:37.730Z,8.70
2019-04-03T08:50:11.723Z,8.70
2019-04-03T08:52:42.476Z,8.80
2019-04-03T08:55:14.815Z,8.80
2019-04-03T08:57:46.866Z,8.90
2019-04-03T09:00:22.880Z,9.00
2019-04-03T09:02:54.914Z,9.10
2019-04-03T09:05:25.587Z,9.20
2019-04-03T09:07:56.855Z,9.20
2019-04-03T09:10:32.687Z,9.30
2019-04-03T09:13:16.086Z,9.30
2019-04-03T09:15:40.248Z,9.30
2019-04-03T09:18:10.777Z,9.40
2019-04-03T09:20:47.521Z,9.40
2019-04-03T09:23:20.984Z,9.50
2019-04-03T09:25:57.257Z,9.50
2019-04-03T09:28:30.152Z,9.50
2019-04-03T09:31:03.950Z,9.50
2019-04-03T09:33:37.032Z,9.40
2019-04-03T09:36:07.987Z,9.50
2019-04-03T09:38:42.930Z,9.50
2019-04-03T09:41:17.121Z,9.60
2019-04-03T09:43:48.941Z,9.60
2019-04-03T09:46:21.657Z,9.80
2019-04-03T09:48:52.122Z,9.90
2019-04-03T09:51:23.017Z,10.10
2019-04-03T09:53:53.695Z,10.10
2019-04-03T09:56:24.067Z,10.30
2019-04-03T09:58:56.178Z,10.40
2019-04-03T10:01:26.651Z,10.40
2019-04-03T10:03:57.042Z,10.30
2019-04-03T10:06:30.514Z,10.30
2019-04-03T10:08:59.950Z,10.30
2019-04-03T10:11:30.259Z,10.30
2019-04-03T10:14:00.762Z,10.30
2019-04-03T10:16:31.018Z,10.30
2019-04-03T10:19:01.594Z,10.30
2019-04-03T10:21:33.737Z,10.30
2019-04-03T10:24:04.264Z,10.30
2019-04-03T10:26:35.567Z,10.30
2019-04-03T10:29:06.030Z,10.40
2019-04-03T10:31:36.404Z,10.50
2019-04-03T10:34:07.184Z,10.50
2019-04-03T10:36:37.599Z,10.60
2019-04-03T10:39:10.364Z,10.50
2019-04-03T10:41:40.637Z,10.50
2019-04-03T10:44:10.992Z,10.50
2019-04-03T10:46:41.259Z,10.30
2019-04-03T10:49:12.145Z,10.30
2019-04-03T10:51:42.689Z,10.30
2019-04-03T10:54:13.272Z,10.30
2019-04-03T10:56:45.192Z,10.30
2019-04-03T10:59:18.067Z,10.40
2019-04-03T11:01:48.088Z,10.40
2019-04-03T11:04:21.761Z,10.50
2019-04-03T11:06:52.227Z,10.60
2019-04-03T11:09:22.652Z,10.70
2019-04-03T11:11:53.179Z,11.00
2019-04-03T11:14:23.832Z,10.90
2019-04-03T11:16:55.813Z,10.90
2019-04-03T11:19:26.494Z,10.70
2019-04-03T11:21:57.197Z,10.60
2019-04-03T11:24:28.042Z,10.60
2019-04-03T11:26:58.392Z,10.70
2019-04-03T11:29:28.748Z,10.60
2019-04-03T11:31:59.104Z,10.50
2019-04-03T11:34:29.440Z,10.50
2019-04-03T11:37:00.554Z,10.40
2019-04-03T11:39:33.552Z,10.50
2019-04-03T11:42:05.027Z,10.50
2019-04-03T11:44:35.340Z,10.70
2019-04-03T11:47:05.620Z,10.80
2019-04-03T11:49:36.576Z,10.90
2019-04-03T11:52:07.189Z,11.00
2019-04-03T11:54:39.498Z,11.00
2019-04-03T11:57:09.717Z,11.00
2019-04-03T11:59:40.347Z,11.00
2019-04-03T12:02:10.891Z,10.80
2019-04-03T12:04:43.220Z,10.80
2019-04-03T12:07:13.265Z,10.80
2019-04-03T12:09:43.888Z,10.70
2019-04-03T12:12:14.465Z,10.60
2019-04-03T12:14:44.945Z,10.50
2019-04-03T12:17:15.620Z,10.40
2019-04-03T12:19:47.176Z,10.30
2019-04-03T12:22:17.819Z,10.10
2019-04-03T12:24:48.537Z,10.10
2019-04-03T12:27:18.881Z,10.10
2019-04-03T12:29:50.163Z,10.00
2019-04-03T12:32:20.544Z,10.00
2019-04-03T12:34:51.030Z,10.10
2019-04-03T12:37:24.513Z,10.10
2019-04-03T12:39:55.455Z,10.10
2019-04-03T12:42:26.181Z,10.10
2019-04-03T12:44:56.644Z,10.00
2019-04-03T12:47:29.192Z,9.90
2019-04-03T12:49:59.996Z,9.90
2019-04-03T12:52:30.763Z,10.00
2019-04-03T12:55:01.980Z,10.10
2019-04-03T12:57:33.871Z,10.20
2019-04-03T13:00:05.681Z,10.40
2019-04-03T13:02:36.119Z,10.50
2019-04-03T13:05:07.855Z,10.60
2019-04-03T13:07:38.444Z,10.60
2019-04-03T13:10:09.170Z,10.60
2019-04-03T13:12:39.666Z,10.60
2019-04-03T13:15:10.603Z,10.50
2019-04-03T13:17:43.483Z,10.40
2019-04-03T13:20:15.673Z,10.40
2019-04-03T13:22:46.210Z,10.30
2019-04-03T13:25:20.209Z,10.20
2019-04-03T13:27:49.788Z,10.10
2019-04-03T13:30:20.331Z,10.10
2019-04-03T13:32:59.612Z,10.10
2019-04-03T13:35:24.291Z,10.20
2019-04-03T13:37:55.550Z,10.10
2019-04-03T13:40:27.743Z,10.10
2019-04-03T13:42:58.318Z,10.20
2019-04-03T13:45:31.066Z,10.20
2019-04-03T13:48:02.329Z,10.20
2019-04-03T13:50:32.678Z,10.10
2019-04-03T13:53:02.978Z,10.10
2019-04-03T13:55:35.009Z,10.10
2019-04-03T13:58:05.261Z,10.00
2019-04-03T14:00:36.037Z,10.00
2019-04-03T14:03:06.263Z,10.00
2019-04-03T14:05:36.956Z,10.00
2019-04-03T14:08:07.916Z,10.10
2019-04-03T14:10:38.688Z,10.20
2019-04-03T14:13:12.206Z,10.20
2019-04-03T14:15:42.174Z,10.30
2019-04-03T14:18:13.175Z,10.30
2019-04-03T14:20:43.683Z,10.40
2019-04-03T14:23:14.449Z,10.40
2019-04-03T14:25:44.810Z,10.40
2019-04-03T14:28:15.242Z,10.40
2019-04-03T14:30:45.831Z,10.40
2019-04-03T14:33:18.980Z,10.30
2019-04-03T14:35:52.647Z,10.30
2019-04-03T14:38:20.455Z,10.30
2019-04-03T14:40:50.784Z,10.20
2019-04-03T14:43:22.345Z,10.20
2019-04-03T14:45:53.315Z,10.30
2019-04-03T14:48:25.512Z,10.30
2019-04-03T14:50:55.641Z,10.20
2019-04-03T14:53:25.962Z,10.20
2019-04-03T14:55:56.321Z,10.10
2019-04-03T14:58:28.126Z,10.10
2019-04-03T15:00:58.585Z,10.00
2019-04-03T15:03:29.425Z,10.00
2019-04-03T15:06:00.364Z,10.00
2019-04-03T15:08:31.350Z,10.00
2019-04-03T15:11:03.011Z,10.00
2019-04-03T15:13:34.330Z,9.90
2019-04-03T15:16:06.404Z,9.90
2019-04-03T15:18:37.177Z,9.80
2019-04-03T15:21:07.792Z,9.80
2019-04-03T15:23:41.560Z,9.70
2019-04-03T15:26:10.351Z,9.60
2019-04-03T15:28:40.663Z,9.60
2019-04-03T15:31:11.967Z,9.40
2019-04-03T15:33:43.586Z,9.40
2019-04-03T15:36:13.991Z,9.30
2019-04-03T15:38:46.433Z,9.30
2019-04-03T15:41:17.209Z,9.40
2019-04-03T15:43:50.737Z,9.30
2019-04-03T15:46:19.857Z,9.30
2019-04-03T15:48:51.003Z,9.20
2019-04-03T15:51:23.122Z,9.10
2019-04-03T15:53:53.773Z,9.10
2019-04-03T15:56:24.283Z,9.00
2019-04-03T15:58:55.038Z,9.00
2019-04-03T16:01:27.015Z,9.00
2019-04-03T16:03:59.065Z,8.90
2019-04-03T16:06:29.604Z,9.00
2019-04-03T16:08:59.952Z,8.90
2019-04-03T16:11:31.316Z,8.90
2019-04-03T16:14:02.380Z,9.00
2019-04-03T16:16:32.955Z,8.90
2019-04-03T16:19:03.390Z,8.90
2019-04-03T16:21:34.229Z,8.80
2019-04-03T16:24:07.812Z,8.80
2019-04-03T16:26:38.012Z,8.90
2019-04-03T16:29:09.327Z,8.80
2019-04-03T16:31:40.782Z,8.80
2019-04-03T16:34:13.130Z,8.80
2019-04-03T16:36:43.643Z,8.70
2019-04-03T16:39:16.738Z,8.70
2019-04-03T16:41:46.147Z,8.70
2019-04-03T16:44:16.943Z,8.70
2019-04-03T16:46:47.348Z,8.70
2019-04-03T16:49:17.746Z,8.60
2019-04-03T16:51:48.162Z,8.70
2019-04-03T16:54:18.913Z,8.60
2019-04-03T16:56:50.040Z,8.50
2019-04-03T16:59:20.624Z,8.50
2019-04-03T17:01:51.286Z,8.60
2019-04-03T17:04:26.081Z,8.50
2019-04-03T17:06:53.750Z,8.50
2019-04-03T17:09:24.073Z,8.50
2019-04-03T17:11:54.832Z,8.50
2019-04-03T17:14:28.144Z,8.50
2019-04-03T17:17:00.082Z,8.40
2019-04-03T17:19:30.533Z,8.40
2019-04-03T17:22:05.821Z,8.30
2019-04-03T17:24:41.913Z,8.30
2019-04-03T17:27:07.547Z,8.30
2019-04-03T17:29:37.963Z,8.30
2019-04-03T17:32:09.549Z,8.20
2019-04-03T17:34:42.599Z,8.20
2019-04-03T17:37:12.378Z,8.20
2019-04-03T17:39:42.921Z,8.20
2019-04-03T17:42:13.382Z,8.20
2019-04-03T17:44:44.828Z,8.20
2019-04-03T17:47:15.798Z,8.10
2019-04-03T17:49:46.286Z,8.10
2019-04-03T17:52:16.754Z,8.00
2019-04-03T17:54:47.151Z,8.00
2019-04-03T17:57:17.673Z,8.00
2019-04-03T17:59:49.433Z,7.90
2019-04-03T18:02:20.000Z,8.00
2019-04-03T18:04:52.051Z,7.90
2019-04-03T18:07:22.323Z,7.90
2019-04-03T18:09:52.709Z,8.00
2019-04-03T18:12:25.837Z,7.90
2019-04-03T18:14:57.525Z,7.90
2019-04-03T18:17:29.936Z,7.80
2019-04-03T18:20:00.436Z,7.80
2019-04-03T18:22:31.248Z,7.80
2019-04-03T18:25:01.568Z,7.80
2019-04-03T18:27:33.487Z,7.80
2019-04-03T18:30:05.780Z,7.80
2019-04-03T18:32:36.047Z,7.80
2019-04-03T18:35:07.357Z,7.80
2019-04-03T18:37:41.005Z,7.70
2019-04-03T18:40:15.053Z,7.70
2019-04-03T18:42:45.078Z,7.80
2019-04-03T18:45:24.935Z,7.70
2019-04-03T18:47:50.729Z,7.70
2019-04-03T18:50:19.924Z,7.70
2019-04-03T18:52:50.401Z,7.70
2019-04-03T18:55:20.802Z,7.70
2019-04-03T18:57:51.452Z,7.70
2019-04-03T19:00:22.890Z,7.70
2019-04-03T19:02:53.282Z,7.70
2019-04-03T19:05:23.724Z,7.70
2019-04-03T19:07:55.690Z,7.70
2019-04-03T19:10:27.786Z,7.70
2019-04-03T19:12:58.219Z,7.70
2019-04-03T19:15:30.211Z,7.70
2019-04-03T19:18:02.561Z,7.70
2019-04-03T19:20:32.840Z,7.70
2019-04-03T19:23:04.989Z,7.70
2019-04-03T19:25:35.160Z,7.70
2019-04-03T19:28:05.525Z,7.70
2019-04-03T19:30:36.095Z,7.70
2019-04-03T19:33:07.854Z,7.70
2019-04-03T19:35:38.294Z,7.70
2019-04-03T19:38:08.667Z,7.60
2019-04-03T19:40:40.505Z,7.60
2019-04-03T19:43:14.544Z,7.60
2019-04-03T19:45:43.621Z,7.50
2019-04-03T19:48:14.083Z,7.50
2019-04-03T19:50:44.590Z,7.50
2019-04-03T19:53:15.073Z,7.50
2019-04-03T19:55:45.475Z,7.50
2019-04-03T19:58:15.943Z,7.40
2019-04-03T20:00:46.567Z,7.40
2019-04-03T20:03:16.899Z,7.50
2019-04-03T20:05:50.093Z,7.40
2019-04-03T20:08:19.447Z,7.50
2019-04-03T20:10:49.903Z,7.50
2019-04-03T20:13:20.461Z,7.50
2019-04-03T20:15:53.799Z,7.50
2019-04-03T20:18:25.590Z,7.40
2019-04-03T20:20:55.074Z,7.50
2019-04-03T20:23:25.398Z,7.40
2019-04-03T20:25:56.066Z,7.40
2019-04-03T20:28:26.722Z,7.40
2019-04-03T20:30:58.550Z,7.40
2019-04-03T20:33:28.839Z,7.40
2019-04-03T20:35:59.278Z,7.40
2019-04-03T20:38:31.150Z,7.30
2019-04-03T20:41:03.249Z,7.30
2019-04-03T20:43:33.649Z,7.30
2019-04-03T20:46:03.917Z,7.30
2019-04-03T20:48:34.406Z,7.30
2019-04-03T20:51:04.736Z,7.20
2019-04-03T20:53:35.110Z,7.20
2019-04-03T20:56:06.045Z,7.20
2019-04-03T20:58:39.980Z,7.20
2019-04-03T21:01:08.424Z,7.20
2019-04-03T21:03:38.876Z,7.20
2019-04-03T21:06:09.321Z,7.20
2019-04-03T21:08:40.711Z,7.20
2019-04-03T21:11:12.191Z,7.10
2019-04-03T21:13:42.522Z,7.10
2019-04-03T21:16:12.884Z,7.10
2019-04-03T21:18:43.167Z,7.00
2019-04-03T21:21:13.584Z,7.10
2019-04-03T21:23:43.868Z,7.10
2019-04-03T21:26:14.370Z,7.10
2019-04-03T21:28:45.372Z,7.10
2019-04-03T21:31:17.130Z,7.00
2019-04-03T21:33:47.741Z,7.00
2019-04-03T21:36:18.007Z,6.90
2019-04-03T21:38:48.299Z,6.90
2019-04-03T21:41:20.335Z,6.90
2019-04-03T21:43:50.501Z,6.90
2019-04-03T21:46:20.781Z,6.90
2019-04-03T21:48:51.110Z,6.90
2019-04-03T21:51:21.551Z,6.90
2019-04-03T21:53:51.946Z,6.90
2019-04-03T21:56:22.222Z,6.90
2019-04-03T21:58:52.515Z,6.80
2019-04-03T22:01:25.252Z,6.80
2019-04-03T22:03:55.663Z,6.80
2019-04-03T22:06:27.568Z,6.80
2019-04-03T22:09:00.459Z,6.80
2019-04-03T22:11:34.795Z,6.80
2019-04-03T22:14:16.744Z,6.70
2019-04-03T22:16:50.485Z,6.80
2019-04-03T22:19:19.208Z,6.80
2019-04-03T22:21:49.466Z,6.70
2019-04-03T22:24:19.954Z,6.70
2019-04-03T22:26:50.395Z,6.70
2019-04-03T22:29:20.650Z,6.70
2019-04-03T22:31:53.690Z,6.70
2019-04-03T22:34:24.408Z,6.80
2019-04-03T22:36:54.744Z,6.70
2019-04-03T22:39:25.063Z,6.70
2019-04-03T22:41:55.625Z,6.70
2019-04-03T22:44:25.987Z,6.70
2019-04-03T22:46:56.320Z,6.70
2019-04-03T22:49:26.564Z,6.70
2019-04-03T22:51:56.831Z,6.70
2019-04-03T22:54:27.152Z,6.70
2019-04-03T22:56:57.441Z,6.60
2019-04-03T22:59:27.817Z,6.70
2019-04-03T23:02:00.603Z,6.70
2019-04-03T23:04:30.236Z,6.60
2019-04-03T23:07:00.475Z,6.70
2019-04-03T23:09:30.725Z,6.70
2019-04-03T23:12:02.938Z,6.80
2019-04-03T23:14:34.144Z,6.80
2019-04-03T23:17:04.947Z,6.80
2019-04-03T23:19:35.462Z,6.70
2019-04-03T23:22:06.390Z,6.60
2019-04-03T23:24:36.670Z,6.60
2019-04-03T23:27:07.313Z,6.60
2019-04-03T23:29:39.252Z,6.60
2019-04-03T23:32:09.541Z,6.60
2019-04-03T23:34:39.794Z,6.60
2019-04-03T23:37:10.141Z,6.60
2019-04-03T23:39:40.543Z,6.60
2019-04-03T23:42:10.749Z,6.50
2019-04-03T23:44:42.128Z,6.60
2019-04-03T23:47:12.971Z,6.60
2019-04-03T23:49:43.249Z,6.60
2019-04-03T23:52:13.465Z,6.60
2019-04-03T23:54:43.869Z,6.60
2019-04-03T23:57:14.205Z,6.50
2019-04-03T23:59:44.991Z,6.50
